Ide Min — PC8366 — position and weather

sailwx.info

Track history (hours):
 
Tides and Currents Weather Stations Pressure Air Temp Water Temp Dewpoint Dewpoint Depression Visibility Wind Speed Wind Dir Waves Ship Positions

Ide Min (Netherlands)

Ship's website: http://www.idemin.nl/english/english.html

Last reported at 2018-May-24 16:01 UTC. Time now 2018-May-24 15:58 UTC.
Position N 54°51' E 010°31'.

Length 40 m; draft 2.4 m.

MMSI: 244537000.

Date/timePositionNaut miles runAvg speedWind from/ knotsBaromVisibWave heightAir tempDewpointWater temp
2018-May-24 16:01N 54°51' E 010°31'1 1.1
2018-May-24 15:30N 54°52' E 010°31'2 4.0
2018-May-24 15:00N 54°53' E 010°35'2 4.0
2018-May-24 14:30N 54°53' E 010°38'1 1.5
2018-May-24 14:00N 54°54' E 010°38'0 0.0
2018-May-24 13:30N 54°54' E 010°38'8 1.9
2018-May-24 08:58N 55°02' E 010°35'2 0.6
2018-May-24 06:10N 55°03' E 010°37'0 0.0
2018-May-24 05:04N 55°03' E 010°37'0 0.0
2018-May-24 04:58N 55°03' E 010°37'0 0.0
2018-May-24 04:28N 55°03' E 010°37'0 0.0
2018-May-24 03:46N 55°03' E 010°37'0 0.0
2018-May-24 03:28N 55°03' E 010°37'0 0.0
2018-May-24 02:55N 55°03' E 010°37'0 0.0
2018-May-24 02:25N 55°03' E 010°37'0 0.0
2018-May-24 01:58N 55°03' E 010°37'0 0.0
2018-May-24 01:25N 55°03' E 010°37'0 0.0
2018-May-24 00:52N 55°03' E 010°37'0 0.0
2018-May-24 00:22N 55°03' E 010°37'0 0.0
2018-May-23 23:55N 55°03' E 010°37'0 0.0
2018-May-23 23:28N 55°03' E 010°37'0 0.0
2018-May-23 22:43N 55°03' E 010°37'0 0.0
2018-May-23 22:28N 55°03' E 010°37'0 0.0
2018-May-23 21:46N 55°03' E 010°37'0 0.0
2018-May-23 21:25N 55°03' E 010°37'0 0.0
2018-May-23 20:58N 55°03' E 010°37'0 0.0
2018-May-23 20:22N 55°03' E 010°37'0 0.0
2018-May-23 19:58N 55°03' E 010°37'0 0.0
2018-May-23 19:28N 55°03' E 010°37'0 0.0
2018-May-23 18:58N 55°03' E 010°37'0 0.0
2018-May-23 18:28N 55°03' E 010°37'0 0.0
2018-May-23 17:58N 55°03' E 010°37'0 0.2
2018-May-23 17:30N 55°03' E 010°37'0 0.1
2018-May-23 16:49N 55°03' E 010°37'0 0.0
2018-May-23 16:28N 55°03' E 010°37'0 0.0
2018-May-23 15:52N 55°03' E 010°37'0 0.0
2018-May-23 15:30N 55°03' E 010°37'0 0.0
2018-May-23 14:56N 55°03' E 010°37'0 0.0
2018-May-23 14:28N 55°03' E 010°37'0 0.0
2018-May-23 13:59N 55°03' E 010°37'2 2.7
2018-May-23 13:17N 55°02' E 010°34'1 5.1
2018-May-23 13:00N 55°02' E 010°32'2 4.5
2018-May-23 12:30N 55°01' E 010°28'0 0.0
2018-May-23 12:00N 55°01' E 010°28'0 0.0
2018-May-23 11:30N 55°01' E 010°28'0 0.9
2018-May-23 10:59N 55°01' E 010°29'2 4.9
2018-May-23 10:30N 55°01' E 010°25'1 1.0
2018-May-23 10:00N 55°01' E 010°24'4 3.5
2018-May-23 08:56N 54°59' E 010°19'2 4.6
2018-May-23 08:30N 54°57' E 010°16'1 0.7
2018-May-23 07:26N 54°57' E 010°16'0 0.0
2018-May-23 06:56N 54°57' E 010°16'0 0.0
2018-May-23 06:29N 54°57' E 010°16'0 0.0
2018-May-23 05:59N 54°57' E 010°16'0 0.0
2018-May-23 05:29N 54°57' E 010°16'0 0.0
2018-May-23 04:59N 54°57' E 010°16'0 0.0
2018-May-23 04:29N 54°57' E 010°16'0 0.0
2018-May-23 03:59N 54°57' E 010°16'0 0.0
2018-May-23 03:29N 54°57' E 010°16'0 0.0
2018-May-23 02:59N 54°57' E 010°16'0 0.0
2018-May-23 02:29N 54°57' E 010°16'0 0.0
2018-May-23 01:56N 54°57' E 010°16'0 0.0
2018-May-23 01:29N 54°57' E 010°16'0 0.0
2018-May-23 00:59N 54°57' E 010°16'0 0.0
2018-May-23 00:26N 54°57' E 010°16'0 0.0
2018-May-22 23:53N 54°57' E 010°16'0 0.0
2018-May-22 23:29N 54°57' E 010°16'0 0.0
2018-May-22 22:56N 54°57' E 010°16'0 0.0
2018-May-22 22:29N 54°57' E 010°16'0 0.0
2018-May-22 21:59N 54°57' E 010°16'0 0.0
2018-May-22 21:29N 54°57' E 010°16'0 0.0
2018-May-22 20:59N 54°57' E 010°16'0 0.0
2018-May-22 20:29N 54°57' E 010°16'0 0.0
2018-May-22 19:59N 54°57' E 010°16'0 0.0
2018-May-22 19:29N 54°57' E 010°16'0 0.0
2018-May-22 18:59N 54°57' E 010°16'0 0.0
2018-May-22 18:30N 54°57' E 010°16'0 0.0
2018-May-22 18:00N 54°57' E 010°16'0 0.0
2018-May-22 17:30N 54°57' E 010°16'0 0.0
2018-May-22 17:00N 54°57' E 010°16'0 0.0
2018-May-22 16:30N 54°57' E 010°16'0 0.2
2018-May-22 15:59N 54°57' E 010°16'2 4.0
2018-May-22 15:26N 54°59' E 010°14'11 4.1
2018-May-22 12:46N 54°49' E 010°05'0 1.1
2018-May-22 12:26N 54°48' E 010°05'1 1.5
2018-May-22 11:59N 54°48' E 010°05'2 1.7
2018-May-22 10:53N 54°46' E 010°05'0 1.3
2018-May-22 10:30N 54°45' E 010°05'1 1.7
2018-May-22 10:00N 54°44' E 010°05'1 2.6
2018-May-22 09:30N 54°43' E 010°05'1 1.9
2018-May-22 09:00N 54°42' E 010°05'1 2.7
2018-May-22 08:30N 54°41' E 010°04'1 2.8
2018-May-22 07:59N 54°40' E 010°02'0 0.0
2018-May-22 07:30N 54°40' E 010°02'0 0.0
2018-May-22 07:00N 54°40' E 010°02'0 0.0
2018-May-22 06:30N 54°40' E 010°02'0 0.0
2018-May-22 05:28N 54°40' E 010°02'0 0.0
2018-May-22 04:59N 54°40' E 010°02'0 0.0
2018-May-22 04:30N 54°40' E 010°02'0 0.0
2018-May-22 04:00N 54°40' E 010°02'0 0.0
2018-May-22 03:30N 54°40' E 010°02'0 0.0
2018-May-22 02:51N 54°40' E 010°02'0 0.0
2018-May-22 00:47N 54°40' E 010°02'0 0.0
2018-May-21 23:49N 54°40' E 010°02'0 0.0
2018-May-21 23:30N 54°40' E 010°02'0 0.0
2018-May-21 23:00N 54°40' E 010°02'0 0.0
2018-May-21 22:30N 54°40' E 010°02'0 0.0
2018-May-21 21:07N 54°40' E 010°02'0 0.0
2018-May-21 21:00N 54°40' E 010°02'0 0.0
2018-May-21 20:29N 54°40' E 010°02'0 0.0
2018-May-21 19:41N 54°40' E 010°02'0 0.0
2018-May-21 15:35N 54°40' E 010°02'0 0.2
2018-May-21 15:28N 54°40' E 010°02'1 2.1
2018-May-21 14:56N 54°40' E 010°04'13 6.8
2018-May-21 13:01N 54°29' E 010°17'1 3.8
2018-May-21 12:47N 54°29' E 010°17'2 3.7
2018-May-21 12:20N 54°27' E 010°16'1 2.6
2018-May-21 11:56N 54°26' E 010°14'2 3.9
2018-May-21 11:30N 54°25' E 010°13'1 1.0
2018-May-21 10:55N 54°24' E 010°13'0 0.0
2018-May-21 10:29N 54°24' E 010°13'0 0.1
2018-May-21 09:01N 54°24' E 010°13'0 3.1
2018-May-21 08:57N 54°24' E 010°12'2 4.0
2018-May-21 08:22N 54°22' E 010°10'1 1.5
2018-May-21 08:00N 54°22' E 010°09'0 0.0
2018-May-21 07:30N 54°22' E 010°09'0 0.0
2018-May-21 07:00N 54°22' E 010°09'0 0.0
2018-May-21 06:30N 54°22' E 010°09'0 0.0
2018-May-21 06:00N 54°22' E 010°09'0 0.0
2018-May-21 05:30N 54°22' E 010°09'0 0.0
2018-May-21 05:00N 54°22' E 010°09'0 0.0
2018-May-21 04:30N 54°22' E 010°09'0 0.0
2018-May-21 04:00N 54°22' E 010°09'0 0.0
2018-May-21 03:30N 54°22' E 010°09'0 0.0
2018-May-21 03:00N 54°22' E 010°09'0 0.0
2018-May-21 02:30N 54°22' E 010°09'0 0.0
2018-May-21 02:00N 54°22' E 010°09'0 0.0
2018-May-21 01:30N 54°22' E 010°09'0 0.0
2018-May-21 01:00N 54°22' E 010°09'0 0.0
2018-May-21 00:25N 54°22' E 010°09'0 0.0
2018-May-21 00:00N 54°22' E 010°09'0 0.0
2018-May-20 23:30N 54°22' E 010°09'0 0.0
2018-May-20 23:00N 54°22' E 010°09'0 0.0
2018-May-20 22:27N 54°22' E 010°09'0 0.0
2018-May-20 20:03N 54°22' E 010°09'2 0.3
2018-May-20 12:02N 54°24' E 010°12'0 5.3
2018-May-20 12:00N 54°24' E 010°12'3 5.5
2018-May-20 11:27N 54°27' E 010°14'2 5.4
2018-May-20 11:00N 54°29' E 010°13'3 6.8
2018-May-20 10:30N 54°32' E 010°11'4 6.9
2018-May-20 09:56N 54°36' E 010°09'3 5.9
2018-May-20 09:30N 54°38' E 010°07'2 4.3
2018-May-20 09:00N 54°40' E 010°05'3 5.6
2018-May-20 08:30N 54°41' E 009°60'2 4.1
2018-May-20 08:00N 54°40' E 009°56'1 1.3
2018-May-20 07:30N 54°39' E 009°56'0 0.0
2018-May-20 07:00N 54°39' E 009°56'0 0.0
2018-May-20 06:30N 54°39' E 009°56'0 0.0
2018-May-20 06:00N 54°39' E 009°56'0 0.0
2018-May-20 05:30N 54°39' E 009°56'0 0.0
2018-May-20 05:00N 54°39' E 009°56'0 0.0
2018-May-20 04:30N 54°39' E 009°56'0 0.0
2018-May-20 04:00N 54°39' E 009°56'0 0.0
2018-May-20 03:30N 54°39' E 009°56'0 0.0
2018-May-20 03:00N 54°39' E 009°56'0 0.0
2018-May-20 02:30N 54°39' E 009°56'0 0.0
2018-May-20 02:00N 54°39' E 009°56'0 0.0
2018-May-20 01:30N 54°39' E 009°56'0 0.0
2018-May-20 01:00N 54°39' E 009°56'0 0.0
2018-May-20 00:30N 54°39' E 009°56'0 0.0
2018-May-20 00:00N 54°39' E 009°56'0 0.0
2018-May-19 23:30N 54°39' E 009°56'0 0.0
2018-May-19 23:00N 54°39' E 009°56'0 0.0
2018-May-19 22:30N 54°39' E 009°56'0 0.0
2018-May-19 22:00N 54°39' E 009°56'0 0.0
2018-May-19 21:30N 54°39' E 009°56'0 0.0
2018-May-19 21:00N 54°39' E 009°56'0 0.0
2018-May-19 20:30N 54°39' E 009°56'0 0.0
2018-May-19 20:00N 54°39' E 009°56'0 0.0
2018-May-19 19:30N 54°39' E 009°56'0 0.0
2018-May-19 19:00N 54°39' E 009°56'0 0.0
2018-May-19 18:30N 54°39' E 009°56'0 0.0
2018-May-19 18:01N 54°39' E 009°56'0 0.0
2018-May-19 17:30N 54°39' E 009°56'0 0.0
2018-May-19 17:00N 54°39' E 009°56'0 0.0
2018-May-19 16:30N 54°39' E 009°56'0 0.0
2018-May-19 15:59N 54°39' E 009°56'0 0.0
2018-May-19 15:30N 54°39' E 009°56'0 0.0
2018-May-19 15:00N 54°39' E 009°56'0 0.0
2018-May-19 14:30N 54°39' E 009°56'0 0.0
2018-May-19 14:00N 54°39' E 009°56'2 4.1
2018-May-19 13:29N 54°41' E 009°59'1 3.0
2018-May-19 13:00N 54°40' E 010°02'1 1.8
2018-May-19 12:30N 54°40' E 010°03'3 5.9
2018-May-19 12:00N 54°43' E 010°04'3 6.1
2018-May-19 11:28N 54°47' E 010°04'3 6.1
2018-May-19 11:00N 54°49' E 010°06'3 5.9
2018-May-19 10:30N 54°52' E 010°06'10 0.4
2018-May-18 10:27N 55°01' E 010°15'3 1.5
2018-May-18 08:20N 54°58' E 010°15'1 2.2
2018-May-18 07:58N 54°57' E 010°15'0 0.1
2018-May-18 05:24N 54°57' E 010°16'0 0.0
2018-May-18 01:27N 54°57' E 010°16'0 0.0
2018-May-18 01:00N 54°57' E 010°16'0 0.0
2018-May-18 00:30N 54°57' E 010°16'0 0.0
2018-May-18 00:00N 54°57' E 010°16'0 0.0
2018-May-17 23:30N 54°57' E 010°16'0 0.0
2018-May-17 23:00N 54°57' E 010°16'0 0.0
2018-May-17 22:30N 54°57' E 010°16'0 0.0
2018-May-17 22:00N 54°57' E 010°16'0 0.0
2018-May-17 19:39N 54°57' E 010°16'0 0.0
2018-May-17 19:30N 54°57' E 010°16'0 0.0
2018-May-17 19:00N 54°57' E 010°16'0 0.0
2018-May-17 18:30N 54°57' E 010°16'0 0.0
2018-May-17 18:00N 54°57' E 010°16'0 0.0
2018-May-17 17:21N 54°57' E 010°16'1 2.8
2018-May-17 16:59N 54°57' E 010°17'2 3.6
2018-May-17 16:27N 54°57' E 010°21'2 3.8
2018-May-17 16:00N 54°56' E 010°23'0 0.8
2018-May-17 15:27N 54°56' E 010°24'1 2.4
2018-May-17 15:01N 54°57' E 010°24'2 3.3
2018-May-17 14:30N 54°56' E 010°25'1 1.9
2018-May-17 14:00N 54°55' E 010°26'0 0.6
2018-May-17 13:31N 54°55' E 010°26'1 1.3
2018-May-17 13:00N 54°55' E 010°26'0 0.7
2018-May-17 12:30N 54°55' E 010°27'0 0.8
2018-May-17 12:00N 54°56' E 010°27'0 0.5
2018-May-17 11:30N 54°56' E 010°27'0 0.4
2018-May-17 11:00N 54°56' E 010°28'1 1.2
2018-May-17 10:29N 54°56' E 010°29'2 3.8
2018-May-17 10:00N 54°55' E 010°31'2 3.2
2018-May-17 09:31N 54°54' E 010°33'1 2.9
2018-May-17 09:01N 54°53' E 010°34'2 3.5
2018-May-17 08:31N 54°52' E 010°31'0 0.8
2018-May-17 08:00N 54°51' E 010°31'0 0.0
2018-May-17 07:31N 54°51' E 010°31'0 0.0
2018-May-17 07:00N 54°51' E 010°31'0 0.0
2018-May-17 06:31N 54°51' E 010°31'0 0.0
2018-May-17 06:00N 54°51' E 010°31'0 0.0
2018-May-17 05:29N 54°51' E 010°31'0 0.0
2018-May-17 05:00N 54°51' E 010°31'0 0.0
2018-May-17 04:31N 54°51' E 010°31'0 0.0
2018-May-17 04:01N 54°51' E 010°31'0 0.0
2018-May-17 03:28N 54°51' E 010°31'0 0.0
2018-May-17 03:00N 54°51' E 010°31'0 0.0
2018-May-17 02:30N 54°51' E 010°31'0 0.0
2018-May-17 02:00N 54°51' E 010°31'0 0.0
2018-May-17 01:30N 54°51' E 010°31'0 0.0
2018-May-17 01:01N 54°51' E 010°31'0 0.0
2018-May-17 00:31N 54°51' E 010°31'0 0.0
2018-May-17 00:00N 54°51' E 010°31'0 0.0
2018-May-16 23:31N 54°51' E 010°31'0 0.0
2018-May-16 23:01N 54°51' E 010°31'0 0.0
2018-May-16 22:30N 54°51' E 010°31'0 0.0
2018-May-16 22:00N 54°51' E 010°31'0 0.0
2018-May-16 21:31N 54°51' E 010°31'0 0.0
2018-May-16 21:01N 54°51' E 010°31'0 0.0
2018-May-16 20:31N 54°51' E 010°31'0 0.0
2018-May-16 20:01N 54°51' E 010°31'0 0.0
2018-May-16 19:31N 54°51' E 010°31'0 0.0
2018-May-16 19:00N 54°51' E 010°31'0 0.0
2018-May-16 18:31N 54°51' E 010°31'0 0.0
2018-May-16 18:00N 54°51' E 010°31'0 0.0
2018-May-16 17:31N 54°51' E 010°31'0 0.0
2018-May-16 17:01N 54°51' E 010°31'0 0.0
2018-May-16 16:30N 54°51' E 010°31'0 0.0
2018-May-16 16:01N 54°51' E 010°31'0 0.0
2018-May-16 15:31N 54°51' E 010°31'0 0.0
2018-May-16 15:01N 54°51' E 010°31'0 0.7
2018-May-16 14:31N 54°51' E 010°32'2 3.3
2018-May-16 14:00N 54°50' E 010°34'1 1.8
2018-May-16 13:31N 54°49' E 010°34'1 1.3
2018-May-16 13:01N 54°49' E 010°33'1 2.8
2018-May-16 12:31N 54°49' E 010°31'2 4.4
2018-May-16 12:01N 54°48' E 010°27'2 4.8
2018-May-16 11:31N 54°48' E 010°23'2 4.3
2018-May-16 11:00N 54°47' E 010°20'2 4.5
2018-May-16 10:29N 54°45' E 010°17'3 5.2
2018-May-16 10:00N 54°44' E 010°14'3 6.4
2018-May-16 09:30N 54°42' E 010°09'3 5.8
2018-May-16 09:01N 54°41' E 010°05'2 3.5
2018-May-16 08:22N 54°41' E 010°01'1 1.8
2018-May-16 07:58N 54°41' E 009°60'0 0.0
2018-May-16 07:30N 54°41' E 009°60'0 0.0
2018-May-16 07:01N 54°41' E 009°60'0 0.0
2018-May-16 06:30N 54°41' E 009°60'0 0.0
2018-May-16 06:00N 54°41' E 009°60'0 0.0
2018-May-16 05:27N 54°41' E 009°60'0 0.0
2018-May-16 04:45N 54°41' E 009°60'0 0.0
2018-May-16 04:22N 54°41' E 009°60'0 0.0
2018-May-16 04:00N 54°41' E 009°60'0 0.0
2018-May-16 03:31N 54°41' E 009°60'0 0.0
2018-May-16 03:01N 54°41' E 009°60'0 0.0
2018-May-16 02:12N 54°41' E 009°60'0 0.0
2018-May-16 01:49N 54°41' E 009°60'0 0.0
2018-May-16 01:30N 54°41' E 009°60'0 0.0
2018-May-16 01:01N 54°41' E 009°60'0 0.0
2018-May-16 00:30N 54°41' E 009°60'0 0.0
2018-May-16 00:00N 54°41' E 009°60'0 0.0
2018-May-15 23:17N 54°41' E 009°60'0 0.0
2018-May-15 23:00N 54°41' E 009°60'0 0.0
2018-May-15 22:30N 54°41' E 009°60'0 0.0
2018-May-15 22:01N 54°41' E 009°60'0 0.0
2018-May-15 21:31N 54°41' E 009°60'0 0.0
2018-May-15 21:00N 54°41' E 009°60'0 0.0
2018-May-15 16:44N 54°41' E 009°60'0 0.0
2018-May-15 16:18N 54°41' E 009°60'0 0.0
2018-May-15 16:00N 54°41' E 009°60'3 1.6
2018-May-15 14:18N 54°40' E 010°04'1 3.2
2018-May-15 13:57N 54°41' E 010°06'1 2.7
2018-May-15 13:30N 54°41' E 010°08'1 1.9
2018-May-15 12:59N 54°40' E 010°07'1 2.0
2018-May-15 12:30N 54°40' E 010°05'1 1.6
2018-May-15 11:58N 54°39' E 010°04'1 2.1
2018-May-15 11:30N 54°38' E 010°04'6 5.0
2018-May-15 10:16N 54°32' E 010°03'8 0.9
2018-May-15 01:03N 54°28' E 009°50'0 0.1
2018-May-15 01:00N 54°28' E 009°50'0 0.0
2018-May-15 00:30N 54°28' E 009°50'0 0.0
2018-May-15 00:00N 54°28' E 009°50'0 0.0
2018-May-14 23:30N 54°28' E 009°50'  
Track history (hours):
 
Tides and Currents Weather Stations Pressure Air Temp Water Temp Dewpoint Dewpoint Depression Visibility Wind Speed Wind Dir Waves Ship Positions

Ide Min (Netherlands)

Ship's website: http://www.idemin.nl/english/english.html

Last reported at 2018-May-24 16:01 UTC. Time now 2018-May-24 15:58 UTC.
Position N 54°51' E 010°31'.

Length 40 m; draft 2.4 m.

MMSI: 244537000.

Date/timePositionNaut miles runAvg speedWind from/ knotsBaromVisibWave heightAir tempDewpointWater temp
2018-May-24 16:01N 54°51' E 010°31'1 1.1
2018-May-24 15:30N 54°52' E 010°31'2 4.0
2018-May-24 15:00N 54°53' E 010°35'2 4.0
2018-May-24 14:30N 54°53' E 010°38'1 1.5
2018-May-24 14:00N 54°54' E 010°38'0 0.0
2018-May-24 13:30N 54°54' E 010°38'8 1.9
2018-May-24 08:58N 55°02' E 010°35'2 0.6
2018-May-24 06:10N 55°03' E 010°37'0 0.0
2018-May-24 05:04N 55°03' E 010°37'0 0.0
2018-May-24 04:58N 55°03' E 010°37'0 0.0
2018-May-24 04:28N 55°03' E 010°37'0 0.0
2018-May-24 03:46N 55°03' E 010°37'0 0.0
2018-May-24 03:28N 55°03' E 010°37'0 0.0
2018-May-24 02:55N 55°03' E 010°37'0 0.0
2018-May-24 02:25N 55°03' E 010°37'0 0.0
2018-May-24 01:58N 55°03' E 010°37'0 0.0
2018-May-24 01:25N 55°03' E 010°37'0 0.0
2018-May-24 00:52N 55°03' E 010°37'0 0.0
2018-May-24 00:22N 55°03' E 010°37'0 0.0
2018-May-23 23:55N 55°03' E 010°37'0 0.0
2018-May-23 23:28N 55°03' E 010°37'0 0.0
2018-May-23 22:43N 55°03' E 010°37'0 0.0
2018-May-23 22:28N 55°03' E 010°37'0 0.0
2018-May-23 21:46N 55°03' E 010°37'0 0.0
2018-May-23 21:25N 55°03' E 010°37'0 0.0
2018-May-23 20:58N 55°03' E 010°37'0 0.0
2018-May-23 20:22N 55°03' E 010°37'0 0.0
2018-May-23 19:58N 55°03' E 010°37'0 0.0
2018-May-23 19:28N 55°03' E 010°37'0 0.0
2018-May-23 18:58N 55°03' E 010°37'0 0.0
2018-May-23 18:28N 55°03' E 010°37'0 0.0
2018-May-23 17:58N 55°03' E 010°37'0 0.2
2018-May-23 17:30N 55°03' E 010°37'0 0.1
2018-May-23 16:49N 55°03' E 010°37'0 0.0
2018-May-23 16:28N 55°03' E 010°37'0 0.0
2018-May-23 15:52N 55°03' E 010°37'0 0.0
2018-May-23 15:30N 55°03' E 010°37'0 0.0
2018-May-23 14:56N 55°03' E 010°37'0 0.0
2018-May-23 14:28N 55°03' E 010°37'0 0.0
2018-May-23 13:59N 55°03' E 010°37'2 2.7
2018-May-23 13:17N 55°02' E 010°34'1 5.1
2018-May-23 13:00N 55°02' E 010°32'2 4.5
2018-May-23 12:30N 55°01' E 010°28'0 0.0
2018-May-23 12:00N 55°01' E 010°28'0 0.0
2018-May-23 11:30N 55°01' E 010°28'0 0.9
2018-May-23 10:59N 55°01' E 010°29'2 4.9
2018-May-23 10:30N 55°01' E 010°25'1 1.0
2018-May-23 10:00N 55°01' E 010°24'4 3.5
2018-May-23 08:56N 54°59' E 010°19'2 4.6
2018-May-23 08:30N 54°57' E 010°16'1 0.7
2018-May-23 07:26N 54°57' E 010°16'0 0.0
2018-May-23 06:56N 54°57' E 010°16'0 0.0
2018-May-23 06:29N 54°57' E 010°16'0 0.0
2018-May-23 05:59N 54°57' E 010°16'0 0.0
2018-May-23 05:29N 54°57' E 010°16'0 0.0
2018-May-23 04:59N 54°57' E 010°16'0 0.0
2018-May-23 04:29N 54°57' E 010°16'0 0.0
2018-May-23 03:59N 54°57' E 010°16'0 0.0
2018-May-23 03:29N 54°57' E 010°16'0 0.0
2018-May-23 02:59N 54°57' E 010°16'0 0.0
2018-May-23 02:29N 54°57' E 010°16'0 0.0
2018-May-23 01:56N 54°57' E 010°16'0 0.0
2018-May-23 01:29N 54°57' E 010°16'0 0.0
2018-May-23 00:59N 54°57' E 010°16'0 0.0
2018-May-23 00:26N 54°57' E 010°16'0 0.0
2018-May-22 23:53N 54°57' E 010°16'0 0.0
2018-May-22 23:29N 54°57' E 010°16'0 0.0
2018-May-22 22:56N 54°57' E 010°16'0 0.0
2018-May-22 22:29N 54°57' E 010°16'0 0.0
2018-May-22 21:59N 54°57' E 010°16'0 0.0
2018-May-22 21:29N 54°57' E 010°16'0 0.0
2018-May-22 20:59N 54°57' E 010°16'0 0.0
2018-May-22 20:29N 54°57' E 010°16'0 0.0
2018-May-22 19:59N 54°57' E 010°16'0 0.0
2018-May-22 19:29N 54°57' E 010°16'0 0.0
2018-May-22 18:59N 54°57' E 010°16'0 0.0
2018-May-22 18:30N 54°57' E 010°16'0 0.0
2018-May-22 18:00N 54°57' E 010°16'0 0.0
2018-May-22 17:30N 54°57' E 010°16'0 0.0
2018-May-22 17:00N 54°57' E 010°16'0 0.0
2018-May-22 16:30N 54°57' E 010°16'0 0.2
2018-May-22 15:59N 54°57' E 010°16'2 4.0
2018-May-22 15:26N 54°59' E 010°14'11 4.1
2018-May-22 12:46N 54°49' E 010°05'0 1.1
2018-May-22 12:26N 54°48' E 010°05'1 1.5
2018-May-22 11:59N 54°48' E 010°05'2 1.7
2018-May-22 10:53N 54°46' E 010°05'0 1.3
2018-May-22 10:30N 54°45' E 010°05'1 1.7
2018-May-22 10:00N 54°44' E 010°05'1 2.6
2018-May-22 09:30N 54°43' E 010°05'1 1.9
2018-May-22 09:00N 54°42' E 010°05'1 2.7
2018-May-22 08:30N 54°41' E 010°04'1 2.8
2018-May-22 07:59N 54°40' E 010°02'0 0.0
2018-May-22 07:30N 54°40' E 010°02'0 0.0
2018-May-22 07:00N 54°40' E 010°02'0 0.0
2018-May-22 06:30N 54°40' E 010°02'0 0.0
2018-May-22 05:28N 54°40' E 010°02'0 0.0
2018-May-22 04:59N 54°40' E 010°02'0 0.0
2018-May-22 04:30N 54°40' E 010°02'0 0.0
2018-May-22 04:00N 54°40' E 010°02'0 0.0
2018-May-22 03:30N 54°40' E 010°02'0 0.0
2018-May-22 02:51N 54°40' E 010°02'0 0.0
2018-May-22 00:47N 54°40' E 010°02'0 0.0
2018-May-21 23:49N 54°40' E 010°02'0 0.0
2018-May-21 23:30N 54°40' E 010°02'0 0.0
2018-May-21 23:00N 54°40' E 010°02'0 0.0
2018-May-21 22:30N 54°40' E 010°02'0 0.0
2018-May-21 21:07N 54°40' E 010°02'0 0.0
2018-May-21 21:00N 54°40' E 010°02'0 0.0
2018-May-21 20:29N 54°40' E 010°02'0 0.0
2018-May-21 19:41N 54°40' E 010°02'0 0.0
2018-May-21 15:35N 54°40' E 010°02'0 0.2
2018-May-21 15:28N 54°40' E 010°02'1 2.1
2018-May-21 14:56N 54°40' E 010°04'13 6.8
2018-May-21 13:01N 54°29' E 010°17'1 3.8
2018-May-21 12:47N 54°29' E 010°17'2 3.7
2018-May-21 12:20N 54°27' E 010°16'1 2.6
2018-May-21 11:56N 54°26' E 010°14'2 3.9
2018-May-21 11:30N 54°25' E 010°13'1 1.0
2018-May-21 10:55N 54°24' E 010°13'0 0.0
2018-May-21 10:29N 54°24' E 010°13'0 0.1
2018-May-21 09:01N 54°24' E 010°13'0 3.1
2018-May-21 08:57N 54°24' E 010°12'2 4.0
2018-May-21 08:22N 54°22' E 010°10'1 1.5
2018-May-21 08:00N 54°22' E 010°09'0 0.0
2018-May-21 07:30N 54°22' E 010°09'0 0.0
2018-May-21 07:00N 54°22' E 010°09'0 0.0
2018-May-21 06:30N 54°22' E 010°09'0 0.0
2018-May-21 06:00N 54°22' E 010°09'0 0.0
2018-May-21 05:30N 54°22' E 010°09'0 0.0
2018-May-21 05:00N 54°22' E 010°09'0 0.0
2018-May-21 04:30N 54°22' E 010°09'0 0.0
2018-May-21 04:00N 54°22' E 010°09'0 0.0
2018-May-21 03:30N 54°22' E 010°09'0 0.0
2018-May-21 03:00N 54°22' E 010°09'0 0.0
2018-May-21 02:30N 54°22' E 010°09'0 0.0
2018-May-21 02:00N 54°22' E 010°09'0 0.0
2018-May-21 01:30N 54°22' E 010°09'0 0.0
2018-May-21 01:00N 54°22' E 010°09'0 0.0
2018-May-21 00:25N 54°22' E 010°09'0 0.0
2018-May-21 00:00N 54°22' E 010°09'0 0.0
2018-May-20 23:30N 54°22' E 010°09'0 0.0
2018-May-20 23:00N 54°22' E 010°09'0 0.0
2018-May-20 22:27N 54°22' E 010°09'0 0.0
2018-May-20 20:03N 54°22' E 010°09'2 0.3
2018-May-20 12:02N 54°24' E 010°12'0 5.3
2018-May-20 12:00N 54°24' E 010°12'3 5.5
2018-May-20 11:27N 54°27' E 010°14'2 5.4
2018-May-20 11:00N 54°29' E 010°13'3 6.8
2018-May-20 10:30N 54°32' E 010°11'4 6.9
2018-May-20 09:56N 54°36' E 010°09'3 5.9
2018-May-20 09:30N 54°38' E 010°07'2 4.3
2018-May-20 09:00N 54°40' E 010°05'3 5.6
2018-May-20 08:30N 54°41' E 009°60'2 4.1
2018-May-20 08:00N 54°40' E 009°56'1 1.3
2018-May-20 07:30N 54°39' E 009°56'0 0.0
2018-May-20 07:00N 54°39' E 009°56'0 0.0
2018-May-20 06:30N 54°39' E 009°56'0 0.0
2018-May-20 06:00N 54°39' E 009°56'0 0.0
2018-May-20 05:30N 54°39' E 009°56'0 0.0
2018-May-20 05:00N 54°39' E 009°56'0 0.0
2018-May-20 04:30N 54°39' E 009°56'0 0.0
2018-May-20 04:00N 54°39' E 009°56'0 0.0
2018-May-20 03:30N 54°39' E 009°56'0 0.0
2018-May-20 03:00N 54°39' E 009°56'0 0.0
2018-May-20 02:30N 54°39' E 009°56'0 0.0
2018-May-20 02:00N 54°39' E 009°56'0 0.0
2018-May-20 01:30N 54°39' E 009°56'0 0.0
2018-May-20 01:00N 54°39' E 009°56'0 0.0
2018-May-20 00:30N 54°39' E 009°56'0 0.0
2018-May-20 00:00N 54°39' E 009°56'0 0.0
2018-May-19 23:30N 54°39' E 009°56'0 0.0
2018-May-19 23:00N 54°39' E 009°56'0 0.0
2018-May-19 22:30N 54°39' E 009°56'0 0.0
2018-May-19 22:00N 54°39' E 009°56'0 0.0
2018-May-19 21:30N 54°39' E 009°56'0 0.0
2018-May-19 21:00N 54°39' E 009°56'0 0.0
2018-May-19 20:30N 54°39' E 009°56'0 0.0
2018-May-19 20:00N 54°39' E 009°56'0 0.0
2018-May-19 19:30N 54°39' E 009°56'0 0.0
2018-May-19 19:00N 54°39' E 009°56'0 0.0
2018-May-19 18:30N 54°39' E 009°56'0 0.0
2018-May-19 18:01N 54°39' E 009°56'0 0.0
2018-May-19 17:30N 54°39' E 009°56'0 0.0
2018-May-19 17:00N 54°39' E 009°56'0 0.0
2018-May-19 16:30N 54°39' E 009°56'0 0.0
2018-May-19 15:59N 54°39' E 009°56'0 0.0
2018-May-19 15:30N 54°39' E 009°56'0 0.0
2018-May-19 15:00N 54°39' E 009°56'0 0.0
2018-May-19 14:30N 54°39' E 009°56'0 0.0
2018-May-19 14:00N 54°39' E 009°56'2 4.1
2018-May-19 13:29N 54°41' E 009°59'1 3.0
2018-May-19 13:00N 54°40' E 010°02'1 1.8
2018-May-19 12:30N 54°40' E 010°03'3 5.9
2018-May-19 12:00N 54°43' E 010°04'3 6.1
2018-May-19 11:28N 54°47' E 010°04'3 6.1
2018-May-19 11:00N 54°49' E 010°06'3 5.9
2018-May-19 10:30N 54°52' E 010°06'10 0.4
2018-May-18 10:27N 55°01' E 010°15'3 1.5
2018-May-18 08:20N 54°58' E 010°15'1 2.2
2018-May-18 07:58N 54°57' E 010°15'0 0.1
2018-May-18 05:24N 54°57' E 010°16'0 0.0
2018-May-18 01:27N 54°57' E 010°16'0 0.0
2018-May-18 01:00N 54°57' E 010°16'0 0.0
2018-May-18 00:30N 54°57' E 010°16'0 0.0
2018-May-18 00:00N 54°57' E 010°16'0 0.0
2018-May-17 23:30N 54°57' E 010°16'0 0.0
2018-May-17 23:00N 54°57' E 010°16'0 0.0
2018-May-17 22:30N 54°57' E 010°16'0 0.0
2018-May-17 22:00N 54°57' E 010°16'0 0.0
2018-May-17 19:39N 54°57' E 010°16'0 0.0
2018-May-17 19:30N 54°57' E 010°16'0 0.0
2018-May-17 19:00N 54°57' E 010°16'0 0.0
2018-May-17 18:30N 54°57' E 010°16'0 0.0
2018-May-17 18:00N 54°57' E 010°16'0 0.0
2018-May-17 17:21N 54°57' E 010°16'1 2.8
2018-May-17 16:59N 54°57' E 010°17'2 3.6
2018-May-17 16:27N 54°57' E 010°21'2 3.8
2018-May-17 16:00N 54°56' E 010°23'0 0.8
2018-May-17 15:27N 54°56' E 010°24'1 2.4
2018-May-17 15:01N 54°57' E 010°24'2 3.3
2018-May-17 14:30N 54°56' E 010°25'1 1.9
2018-May-17 14:00N 54°55' E 010°26'0 0.6
2018-May-17 13:31N 54°55' E 010°26'1 1.3
2018-May-17 13:00N 54°55' E 010°26'0 0.7
2018-May-17 12:30N 54°55' E 010°27'0 0.8
2018-May-17 12:00N 54°56' E 010°27'0 0.5
2018-May-17 11:30N 54°56' E 010°27'0 0.4
2018-May-17 11:00N 54°56' E 010°28'1 1.2
2018-May-17 10:29N 54°56' E 010°29'2 3.8
2018-May-17 10:00N 54°55' E 010°31'2 3.2
2018-May-17 09:31N 54°54' E 010°33'1 2.9
2018-May-17 09:01N 54°53' E 010°34'2 3.5
2018-May-17 08:31N 54°52' E 010°31'0 0.8
2018-May-17 08:00N 54°51' E 010°31'0 0.0
2018-May-17 07:31N 54°51' E 010°31'0 0.0
2018-May-17 07:00N 54°51' E 010°31'0 0.0
2018-May-17 06:31N 54°51' E 010°31'0 0.0
2018-May-17 06:00N 54°51' E 010°31'0 0.0
2018-May-17 05:29N 54°51' E 010°31'0 0.0
2018-May-17 05:00N 54°51' E 010°31'0 0.0
2018-May-17 04:31N 54°51' E 010°31'0 0.0
2018-May-17 04:01N 54°51' E 010°31'0 0.0
2018-May-17 03:28N 54°51' E 010°31'0 0.0
2018-May-17 03:00N 54°51' E 010°31'0 0.0
2018-May-17 02:30N 54°51' E 010°31'0 0.0
2018-May-17 02:00N 54°51' E 010°31'0 0.0
2018-May-17 01:30N 54°51' E 010°31'0 0.0
2018-May-17 01:01N 54°51' E 010°31'0 0.0
2018-May-17 00:31N 54°51' E 010°31'0 0.0
2018-May-17 00:00N 54°51' E 010°31'0 0.0
2018-May-16 23:31N 54°51' E 010°31'0 0.0
2018-May-16 23:01N 54°51' E 010°31'0 0.0
2018-May-16 22:30N 54°51' E 010°31'0 0.0
2018-May-16 22:00N 54°51' E 010°31'0 0.0
2018-May-16 21:31N 54°51' E 010°31'0 0.0
2018-May-16 21:01N 54°51' E 010°31'0 0.0
2018-May-16 20:31N 54°51' E 010°31'0 0.0
2018-May-16 20:01N 54°51' E 010°31'0 0.0
2018-May-16 19:31N 54°51' E 010°31'0 0.0
2018-May-16 19:00N 54°51' E 010°31'0 0.0
2018-May-16 18:31N 54°51' E 010°31'0 0.0
2018-May-16 18:00N 54°51' E 010°31'0 0.0
2018-May-16 17:31N 54°51' E 010°31'0 0.0
2018-May-16 17:01N 54°51' E 010°31'0 0.0
2018-May-16 16:30N 54°51' E 010°31'0 0.0
2018-May-16 16:01N 54°51' E 010°31'0 0.0
2018-May-16 15:31N 54°51' E 010°31'0 0.0
2018-May-16 15:01N 54°51' E 010°31'0 0.7
2018-May-16 14:31N 54°51' E 010°32'2 3.3
2018-May-16 14:00N 54°50' E 010°34'1 1.8
2018-May-16 13:31N 54°49' E 010°34'1 1.3
2018-May-16 13:01N 54°49' E 010°33'1 2.8
2018-May-16 12:31N 54°49' E 010°31'2 4.4
2018-May-16 12:01N 54°48' E 010°27'2 4.8
2018-May-16 11:31N 54°48' E 010°23'2 4.3
2018-May-16 11:00N 54°47' E 010°20'2 4.5
2018-May-16 10:29N 54°45' E 010°17'3 5.2
2018-May-16 10:00N 54°44' E 010°14'3 6.4
2018-May-16 09:30N 54°42' E 010°09'3 5.8
2018-May-16 09:01N 54°41' E 010°05'2 3.5
2018-May-16 08:22N 54°41' E 010°01'1 1.8
2018-May-16 07:58N 54°41' E 009°60'0 0.0
2018-May-16 07:30N 54°41' E 009°60'0 0.0
2018-May-16 07:01N 54°41' E 009°60'0 0.0
2018-May-16 06:30N 54°41' E 009°60'0 0.0
2018-May-16 06:00N 54°41' E 009°60'0 0.0
2018-May-16 05:27N 54°41' E 009°60'0 0.0
2018-May-16 04:45N 54°41' E 009°60'0 0.0
2018-May-16 04:22N 54°41' E 009°60'0 0.0
2018-May-16 04:00N 54°41' E 009°60'0 0.0
2018-May-16 03:31N 54°41' E 009°60'0 0.0
2018-May-16 03:01N 54°41' E 009°60'0 0.0
2018-May-16 02:12N 54°41' E 009°60'0 0.0
2018-May-16 01:49N 54°41' E 009°60'0 0.0
2018-May-16 01:30N 54°41' E 009°60'0 0.0
2018-May-16 01:01N 54°41' E 009°60'0 0.0
2018-May-16 00:30N 54°41' E 009°60'0 0.0
2018-May-16 00:00N 54°41' E 009°60'0 0.0
2018-May-15 23:17N 54°41' E 009°60'0 0.0
2018-May-15 23:00N 54°41' E 009°60'0 0.0
2018-May-15 22:30N 54°41' E 009°60'0 0.0
2018-May-15 22:01N 54°41' E 009°60'0 0.0
2018-May-15 21:31N 54°41' E 009°60'0 0.0
2018-May-15 21:00N 54°41' E 009°60'0 0.0
2018-May-15 16:44N 54°41' E 009°60'0 0.0
2018-May-15 16:18N 54°41' E 009°60'0 0.0
2018-May-15 16:00N 54°41' E 009°60'3 1.6
2018-May-15 14:18N 54°40' E 010°04'1 3.2
2018-May-15 13:57N 54°41' E 010°06'1 2.7
2018-May-15 13:30N 54°41' E 010°08'1 1.9
2018-May-15 12:59N 54°40' E 010°07'1 2.0
2018-May-15 12:30N 54°40' E 010°05'1 1.6
2018-May-15 11:58N 54°39' E 010°04'1 2.1
2018-May-15 11:30N 54°38' E 010°04'6 5.0
2018-May-15 10:16N 54°32' E 010°03'8 0.9
2018-May-15 01:03N 54°28' E 009°50'0 0.1
2018-May-15 01:00N 54°28' E 009°50'0 0.0
2018-May-15 00:30N 54°28' E 009°50'0 0.0
2018-May-15 00:00N 54°28' E 009°50'0 0.0
2018-May-14 23:30N 54°28' E 009°50'  

Dump ship's entire track history